sensor_id;sensor_type;location;lat;lon;timestamp;P1;durP1;ratioP1;P2;durP2;ratioP2
7410;SDS011;3747;48.628;9.058;2023-06-10T00:00:02;6.40;;;5.90;;
7410;SDS011;3747;48.628;9.058;2023-06-10T00:02:32;6.77;;;6.17;;
7410;SDS011;3747;48.628;9.058;2023-06-10T00:04:58;7.07;;;6.43;;
7410;SDS011;3747;48.628;9.058;2023-06-10T00:07:25;6.97;;;6.27;;
7410;SDS011;3747;48.628;9.058;2023-06-10T00:09:51;9.20;;;6.40;;
7410;SDS011;3747;48.628;9.058;2023-06-10T00:12:20;6.67;;;6.07;;
7410;SDS011;3747;48.628;9.058;2023-06-10T00:14:46;6.40;;;5.90;;
7410;SDS011;3747;48.628;9.058;2023-06-10T00:17:15;6.87;;;6.27;;
7410;SDS011;3747;48.628;9.058;2023-06-10T00:19:41;6.63;;;6.03;;
7410;SDS011;3747;48.628;9.058;2023-06-10T00:22:08;7.37;;;6.10;;
7410;SDS011;3747;48.628;9.058;2023-06-10T00:24:35;6.77;;;6.13;;
7410;SDS011;3747;48.628;9.058;2023-06-10T00:27:02;7.87;;;6.53;;
7410;SDS011;3747;48.628;9.058;2023-06-10T00:29:31;7.33;;;6.63;;
7410;SDS011;3747;48.628;9.058;2023-06-10T00:31:58;7.87;;;6.60;;
7410;SDS011;3747;48.628;9.058;2023-06-10T00:34:24;6.57;;;6.07;;
7410;SDS011;3747;48.628;9.058;2023-06-10T00:36:51;6.63;;;6.13;;
7410;SDS011;3747;48.628;9.058;2023-06-10T00:39:18;7.20;;;6.53;;
7410;SDS011;3747;48.628;9.058;2023-06-10T00:41:44;7.20;;;6.57;;
7410;SDS011;3747;48.628;9.058;2023-06-10T00:44:11;6.90;;;6.30;;
7410;SDS011;3747;48.628;9.058;2023-06-10T00:46:39;7.40;;;6.77;;
7410;SDS011;3747;48.628;9.058;2023-06-10T00:49:06;6.83;;;6.23;;
7410;SDS011;3747;48.628;9.058;2023-06-10T00:51:33;7.07;;;6.50;;
7410;SDS011;3747;48.628;9.058;2023-06-10T00:54:01;6.77;;;6.27;;
7410;SDS011;3747;48.628;9.058;2023-06-10T00:56:28;7.10;;;6.40;;
7410;SDS011;3747;48.628;9.058;2023-06-10T00:58:55;7.10;;;6.50;;
7410;SDS011;3747;48.628;9.058;2023-06-10T01:01:22;6.07;;;5.57;;
7410;SDS011;3747;48.628;9.058;2023-06-10T01:03:50;7.90;;;6.53;;
7410;SDS011;3747;48.628;9.058;2023-06-10T01:06:18;7.67;;;7.03;;
7410;SDS011;3747;48.628;9.058;2023-06-10T01:08:53;6.90;;;6.30;;
7410;SDS011;3747;48.628;9.058;2023-06-10T01:11:34;7.30;;;6.60;;
7410;SDS011;3747;48.628;9.058;2023-06-10T01:14:12;7.00;;;6.40;;
7410;SDS011;3747;48.628;9.058;2023-06-10T01:16:40;6.70;;;6.17;;
7410;SDS011;3747;48.628;9.058;2023-06-10T01:19:09;6.57;;;6.07;;
7410;SDS011;3747;48.628;9.058;2023-06-10T01:21:39;7.30;;;6.70;;
7410;SDS011;3747;48.628;9.058;2023-06-10T01:24:06;7.10;;;6.50;;
7410;SDS011;3747;48.628;9.058;2023-06-10T01:26:33;8.20;;;7.47;;
7410;SDS011;3747;48.628;9.058;2023-06-10T01:29:03;8.03;;;7.30;;
7410;SDS011;3747;48.628;9.058;2023-06-10T01:31:35;7.43;;;6.77;;
7410;SDS011;3747;48.628;9.058;2023-06-10T01:34:08;7.97;;;7.17;;
7410;SDS011;3747;48.628;9.058;2023-06-10T01:36:39;8.23;;;7.63;;
7410;SDS011;3747;48.628;9.058;2023-06-10T01:39:07;7.83;;;7.10;;
7410;SDS011;3747;48.628;9.058;2023-06-10T01:41:34;8.37;;;7.60;;
7410;SDS011;3747;48.628;9.058;2023-06-10T01:44:02;7.97;;;7.37;;
7410;SDS011;3747;48.628;9.058;2023-06-10T01:46:28;7.60;;;7.00;;
7410;SDS011;3747;48.628;9.058;2023-06-10T01:48:55;9.20;;;8.40;;
7410;SDS011;3747;48.628;9.058;2023-06-10T01:51:22;8.30;;;7.60;;
7410;SDS011;3747;48.628;9.058;2023-06-10T01:53:50;8.37;;;7.53;;
7410;SDS011;3747;48.628;9.058;2023-06-10T01:56:16;8.93;;;8.10;;
7410;SDS011;3747;48.628;9.058;2023-06-10T01:58:44;8.30;;;7.53;;
7410;SDS011;3747;48.628;9.058;2023-06-10T02:01:11;8.00;;;7.40;;
7410;SDS011;3747;48.628;9.058;2023-06-10T02:03:38;8.93;;;8.13;;
7410;SDS011;3747;48.628;9.058;2023-06-10T02:06:05;8.30;;;7.60;;
7410;SDS011;3747;48.628;9.058;2023-06-10T02:08:31;8.70;;;7.90;;
7410;SDS011;3747;48.628;9.058;2023-06-10T02:10:59;8.93;;;8.13;;
7410;SDS011;3747;48.628;9.058;2023-06-10T02:13:26;8.73;;;7.83;;
7410;SDS011;3747;48.628;9.058;2023-06-10T02:15:53;8.20;;;7.50;;
7410;SDS011;3747;48.628;9.058;2023-06-10T02:18:19;8.33;;;7.53;;
7410;SDS011;3747;48.628;9.058;2023-06-10T02:20:46;9.60;;;8.70;;
7410;SDS011;3747;48.628;9.058;2023-06-10T02:23:13;10.03;;;8.57;;
7410;SDS011;3747;48.628;9.058;2023-06-10T02:25:40;8.83;;;7.73;;
7410;SDS011;3747;48.628;9.058;2023-06-10T02:28:08;8.77;;;7.97;;
7410;SDS011;3747;48.628;9.058;2023-06-10T02:30:35;8.83;;;7.87;;
7410;SDS011;3747;48.628;9.058;2023-06-10T02:33:01;10.03;;;8.73;;
7410;SDS011;3747;48.628;9.058;2023-06-10T02:35:28;9.63;;;8.83;;
7410;SDS011;3747;48.628;9.058;2023-06-10T02:37:55;10.40;;;9.43;;
7410;SDS011;3747;48.628;9.058;2023-06-10T02:40:21;9.73;;;8.83;;
7410;SDS011;3747;48.628;9.058;2023-06-10T02:42:48;9.63;;;8.83;;
7410;SDS011;3747;48.628;9.058;2023-06-10T02:45:16;10.37;;;9.37;;
7410;SDS011;3747;48.628;9.058;2023-06-10T02:47:43;10.23;;;9.40;;
7410;SDS011;3747;48.628;9.058;2023-06-10T02:50:09;9.40;;;8.50;;
7410;SDS011;3747;48.628;9.058;2023-06-10T02:52:36;11.10;;;9.00;;
7410;SDS011;3747;48.628;9.058;2023-06-10T02:55:03;8.97;;;8.07;;
7410;SDS011;3747;48.628;9.058;2023-06-10T02:57:31;9.07;;;8.20;;
7410;SDS011;3747;48.628;9.058;2023-06-10T02:59:58;9.60;;;8.67;;
7410;SDS011;3747;48.628;9.058;2023-06-10T03:02:26;10.00;;;9.00;;
7410;SDS011;3747;48.628;9.058;2023-06-10T03:04:53;9.90;;;8.90;;
7410;SDS011;3747;48.628;9.058;2023-06-10T03:07:20;10.07;;;9.17;;
7410;SDS011;3747;48.628;9.058;2023-06-10T03:09:48;9.77;;;8.80;;
7410;SDS011;3747;48.628;9.058;2023-06-10T03:12:14;9.63;;;8.57;;
7410;SDS011;3747;48.628;9.058;2023-06-10T03:14:41;10.03;;;9.03;;
7410;SDS011;3747;48.628;9.058;2023-06-10T03:17:08;9.73;;;8.83;;
7410;SDS011;3747;48.628;9.058;2023-06-10T03:19:36;10.20;;;9.20;;
7410;SDS011;3747;48.628;9.058;2023-06-10T03:22:08;9.70;;;8.80;;
7410;SDS011;3747;48.628;9.058;2023-06-10T03:24:35;9.80;;;8.80;;
7410;SDS011;3747;48.628;9.058;2023-06-10T03:27:05;9.83;;;9.03;;
7410;SDS011;3747;48.628;9.058;2023-06-10T03:29:32;10.73;;;9.83;;
7410;SDS011;3747;48.628;9.058;2023-06-10T03:31:59;9.17;;;8.37;;
7410;SDS011;3747;48.628;9.058;2023-06-10T03:34:25;10.00;;;9.20;;
7410;SDS011;3747;48.628;9.058;2023-06-10T03:36:53;8.47;;;7.67;;
7410;SDS011;3747;48.628;9.058;2023-06-10T03:39:20;8.80;;;8.00;;
7410;SDS011;3747;48.628;9.058;2023-06-10T03:41:48;9.77;;;8.57;;
7410;SDS011;3747;48.628;9.058;2023-06-10T03:44:14;9.93;;;8.97;;
7410;SDS011;3747;48.628;9.058;2023-06-10T03:46:41;9.00;;;8.20;;
7410;SDS011;3747;48.628;9.058;2023-06-10T03:49:08;9.57;;;8.70;;
7410;SDS011;3747;48.628;9.058;2023-06-10T03:51:35;9.17;;;8.37;;
7410;SDS011;3747;48.628;9.058;2023-06-10T03:54:04;9.30;;;8.43;;
7410;SDS011;3747;48.628;9.058;2023-06-10T03:56:31;11.00;;;10.00;;
7410;SDS011;3747;48.628;9.058;2023-06-10T03:58:58;10.90;;;9.80;;
7410;SDS011;3747;48.628;9.058;2023-06-10T04:01:25;11.00;;;9.90;;
7410;SDS011;3747;48.628;9.058;2023-06-10T04:03:52;10.37;;;9.47;;
7410;SDS011;3747;48.628;9.058;2023-06-10T04:06:20;10.47;;;9.47;;
7410;SDS011;3747;48.628;9.058;2023-06-10T04:08:47;9.83;;;8.93;;
7410;SDS011;3747;48.628;9.058;2023-06-10T04:11:15;9.03;;;8.20;;
7410;SDS011;3747;48.628;9.058;2023-06-10T04:13:42;9.83;;;9.03;;
7410;SDS011;3747;48.628;9.058;2023-06-10T04:16:09;9.80;;;8.90;;
7410;SDS011;3747;48.628;9.058;2023-06-10T04:18:35;9.17;;;8.30;;
7410;SDS011;3747;48.628;9.058;2023-06-10T04:21:02;9.00;;;8.20;;
7410;SDS011;3747;48.628;9.058;2023-06-10T04:23:29;9.63;;;8.07;;
7410;SDS011;3747;48.628;9.058;2023-06-10T04:25:55;9.63;;;8.83;;
7410;SDS011;3747;48.628;9.058;2023-06-10T04:28:23;9.17;;;8.47;;
7410;SDS011;3747;48.628;9.058;2023-06-10T04:30:50;8.13;;;7.43;;
7410;SDS011;3747;48.628;9.058;2023-06-10T04:33:17;8.37;;;7.67;;
7410;SDS011;3747;48.628;9.058;2023-06-10T04:35:43;9.00;;;8.07;;
7410;SDS011;3747;48.628;9.058;2023-06-10T04:38:12;8.47;;;7.77;;
7410;SDS011;3747;48.628;9.058;2023-06-10T04:40:39;8.00;;;7.13;;
7410;SDS011;3747;48.628;9.058;2023-06-10T04:43:06;7.23;;;6.50;;
7410;SDS011;3747;48.628;9.058;2023-06-10T04:45:34;6.90;;;6.30;;
7410;SDS011;3747;48.628;9.058;2023-06-10T04:48:00;6.37;;;5.87;;
7410;SDS011;3747;48.628;9.058;2023-06-10T04:50:28;7.73;;;6.93;;
7410;SDS011;3747;48.628;9.058;2023-06-10T04:52:54;6.30;;;5.80;;
7410;SDS011;3747;48.628;9.058;2023-06-10T04:55:22;6.73;;;6.23;;
7410;SDS011;3747;48.628;9.058;2023-06-10T04:57:49;8.33;;;6.70;;
7410;SDS011;3747;48.628;9.058;2023-06-10T05:00:16;7.40;;;6.77;;
7410;SDS011;3747;48.628;9.058;2023-06-10T05:02:44;6.80;;;5.57;;
7410;SDS011;3747;48.628;9.058;2023-06-10T05:05:14;7.73;;;6.10;;
7410;SDS011;3747;48.628;9.058;2023-06-10T05:07:41;6.53;;;5.93;;
7410;SDS011;3747;48.628;9.058;2023-06-10T05:10:08;6.27;;;5.80;;
7410;SDS011;3747;48.628;9.058;2023-06-10T05:12:37;6.40;;;5.80;;
7410;SDS011;3747;48.628;9.058;2023-06-10T05:15:04;6.63;;;6.03;;
7410;SDS011;3747;48.628;9.058;2023-06-10T05:17:32;6.20;;;5.70;;
7410;SDS011;3747;48.628;9.058;2023-06-10T05:20:01;5.80;;;5.40;;
7410;SDS011;3747;48.628;9.058;2023-06-10T05:22:27;6.97;;;6.27;;
7410;SDS011;3747;48.628;9.058;2023-06-10T05:24:54;6.20;;;5.70;;
7410;SDS011;3747;48.628;9.058;2023-06-10T05:27:21;6.27;;;5.77;;
7410;SDS011;3747;48.628;9.058;2023-06-10T05:29:49;6.53;;;6.03;;
7410;SDS011;3747;48.628;9.058;2023-06-10T05:32:16;6.20;;;5.60;;
7410;SDS011;3747;48.628;9.058;2023-06-10T05:34:43;6.00;;;5.40;;
7410;SDS011;3747;48.628;9.058;2023-06-10T05:37:12;5.87;;;5.47;;
7410;SDS011;3747;48.628;9.058;2023-06-10T05:39:39;6.40;;;5.80;;
7410;SDS011;3747;48.628;9.058;2023-06-10T05:42:06;5.80;;;5.33;;
7410;SDS011;3747;48.628;9.058;2023-06-10T05:44:33;5.93;;;5.53;;
7410;SDS011;3747;48.628;9.058;2023-06-10T05:47:00;6.13;;;5.53;;
7410;SDS011;3747;48.628;9.058;2023-06-10T05:49:27;5.43;;;5.03;;
7410;SDS011;3747;48.628;9.058;2023-06-10T05:51:54;6.07;;;5.47;;
7410;SDS011;3747;48.628;9.058;2023-06-10T05:54:24;5.27;;;4.87;;
7410;SDS011;3747;48.628;9.058;2023-06-10T05:56:51;5.40;;;4.90;;
7410;SDS011;3747;48.628;9.058;2023-06-10T05:59:18;6.13;;;5.63;;
7410;SDS011;3747;48.628;9.058;2023-06-10T06:01:44;5.57;;;5.13;;
7410;SDS011;3747;48.628;9.058;2023-06-10T06:04:11;5.40;;;4.97;;
7410;SDS011;3747;48.628;9.058;2023-06-10T06:06:38;6.43;;;5.83;;
7410;SDS011;3747;48.628;9.058;2023-06-10T06:09:05;6.27;;;5.73;;
7410;SDS011;3747;48.628;9.058;2023-06-10T06:11:33;5.70;;;5.07;;
7410;SDS011;3747;48.628;9.058;2023-06-10T06:14:00;6.57;;;5.83;;
7410;SDS011;3747;48.628;9.058;2023-06-10T06:16:27;5.90;;;5.40;;
7410;SDS011;3747;48.628;9.058;2023-06-10T06:18:54;5.33;;;4.93;;
7410;SDS011;3747;48.628;9.058;2023-06-10T06:21:20;5.43;;;5.03;;
7410;SDS011;3747;48.628;9.058;2023-06-10T06:23:47;5.83;;;5.40;;
7410;SDS011;3747;48.628;9.058;2023-06-10T06:26:14;5.73;;;5.23;;
7410;SDS011;3747;48.628;9.058;2023-06-10T06:28:42;5.33;;;4.83;;
7410;SDS011;3747;48.628;9.058;2023-06-10T06:31:08;5.67;;;5.17;;
7410;SDS011;3747;48.628;9.058;2023-06-10T06:33:35;5.37;;;4.97;;
7410;SDS011;3747;48.628;9.058;2023-06-10T06:36:02;5.73;;;5.23;;
7410;SDS011;3747;48.628;9.058;2023-06-10T06:38:29;5.40;;;5.00;;
7410;SDS011;3747;48.628;9.058;2023-06-10T06:40:55;5.20;;;4.90;;
7410;SDS011;3747;48.628;9.058;2023-06-10T06:43:27;5.57;;;5.07;;
7410;SDS011;3747;48.628;9.058;2023-06-10T06:45:55;6.07;;;5.43;;
7410;SDS011;3747;48.628;9.058;2023-06-10T06:48:21;5.10;;;4.60;;
7410;SDS011;3747;48.628;9.058;2023-06-10T06:50:48;5.77;;;5.30;;
7410;SDS011;3747;48.628;9.058;2023-06-10T06:53:15;4.87;;;4.57;;
7410;SDS011;3747;48.628;9.058;2023-06-10T06:55:42;6.13;;;5.63;;
7410;SDS011;3747;48.628;9.058;2023-06-10T06:58:08;5.73;;;5.33;;
7410;SDS011;3747;48.628;9.058;2023-06-10T07:00:35;6.17;;;5.67;;
7410;SDS011;3747;48.628;9.058;2023-06-10T07:03:03;5.67;;;5.17;;
7410;SDS011;3747;48.628;9.058;2023-06-10T07:05:30;5.30;;;4.90;;
7410;SDS011;3747;48.628;9.058;2023-06-10T07:07:56;6.13;;;5.60;;
7410;SDS011;3747;48.628;9.058;2023-06-10T07:10:23;6.07;;;5.57;;
7410;SDS011;3747;48.628;9.058;2023-06-10T07:12:50;5.93;;;5.33;;
7410;SDS011;3747;48.628;9.058;2023-06-10T07:15:17;5.33;;;4.93;;
7410;SDS011;3747;48.628;9.058;2023-06-10T07:17:44;5.60;;;5.10;;
7410;SDS011;3747;48.628;9.058;2023-06-10T07:20:12;5.07;;;4.60;;
7410;SDS011;3747;48.628;9.058;2023-06-10T07:22:39;5.43;;;5.03;;
7410;SDS011;3747;48.628;9.058;2023-06-10T07:25:07;4.93;;;4.53;;
7410;SDS011;3747;48.628;9.058;2023-06-10T07:27:34;5.57;;;5.17;;
7410;SDS011;3747;48.628;9.058;2023-06-10T07:30:02;5.73;;;5.33;;
7410;SDS011;3747;48.628;9.058;2023-06-10T07:32:29;5.37;;;4.97;;
7410;SDS011;3747;48.628;9.058;2023-06-10T07:34:56;5.43;;;4.93;;
7410;SDS011;3747;48.628;9.058;2023-06-10T07:37:25;6.17;;;4.87;;
7410;SDS011;3747;48.628;9.058;2023-06-10T07:42:37;5.00;;;4.67;;
7410;SDS011;3747;48.628;9.058;2023-06-10T07:45:05;4.70;;;4.40;;
7410;SDS011;3747;48.628;9.058;2023-06-10T07:47:32;5.23;;;4.83;;
7410;SDS011;3747;48.628;9.058;2023-06-10T07:49:59;5.47;;;4.90;;
7410;SDS011;3747;48.628;9.058;2023-06-10T07:52:27;4.20;;;3.90;;
7410;SDS011;3747;48.628;9.058;2023-06-10T07:54:54;4.60;;;4.30;;
7410;SDS011;3747;48.628;9.058;2023-06-10T07:57:21;4.90;;;4.40;;
7410;SDS011;3747;48.628;9.058;2023-06-10T07:59:48;6.57;;;4.20;;
7410;SDS011;3747;48.628;9.058;2023-06-10T08:02:14;5.30;;;4.20;;
7410;SDS011;3747;48.628;9.058;2023-06-10T08:04:48;5.10;;;4.73;;
7410;SDS011;3747;48.628;9.058;2023-06-10T08:07:16;5.17;;;4.47;;
7410;SDS011;3747;48.628;9.058;2023-06-10T08:12:38;4.53;;;4.23;;
7410;SDS011;3747;48.628;9.058;2023-06-10T08:15:06;4.83;;;4.33;;
7410;SDS011;3747;48.628;9.058;2023-06-10T08:17:33;5.93;;;4.23;;
7410;SDS011;3747;48.628;9.058;2023-06-10T08:20:03;4.77;;;4.47;;
7410;SDS011;3747;48.628;9.058;2023-06-10T08:22:30;5.23;;;4.73;;
7410;SDS011;3747;48.628;9.058;2023-06-10T08:27:38;6.37;;;4.47;;
7410;SDS011;3747;48.628;9.058;2023-06-10T08:30:05;4.87;;;4.47;;
7410;SDS011;3747;48.628;9.058;2023-06-10T08:32:35;4.60;;;4.30;;
7410;SDS011;3747;48.628;9.058;2023-06-10T08:35:01;4.93;;;4.43;;
7410;SDS011;3747;48.628;9.058;2023-06-10T08:37:28;4.90;;;4.50;;
7410;SDS011;3747;48.628;9.058;2023-06-10T08:39:55;5.20;;;4.30;;
7410;SDS011;3747;48.628;9.058;2023-06-10T08:42:24;4.43;;;4.13;;
7410;SDS011;3747;48.628;9.058;2023-06-10T08:44:55;4.40;;;4.00;;
7410;SDS011;3747;48.628;9.058;2023-06-10T08:47:23;6.00;;;4.03;;
7410;SDS011;3747;48.628;9.058;2023-06-10T08:49:52;6.23;;;4.33;;
7410;SDS011;3747;48.628;9.058;2023-06-10T08:52:21;4.23;;;3.93;;
7410;SDS011;3747;48.628;9.058;2023-06-10T08:54:54;4.87;;;4.30;;
7410;SDS011;3747;48.628;9.058;2023-06-10T08:57:24;5.00;;;4.17;;
7410;SDS011;3747;48.628;9.058;2023-06-10T08:59:52;4.33;;;4.03;;
7410;SDS011;3747;48.628;9.058;2023-06-10T09:02:20;3.83;;;3.60;;
7410;SDS011;3747;48.628;9.058;2023-06-10T09:04:48;4.40;;;4.10;;
7410;SDS011;3747;48.628;9.058;2023-06-10T09:07:15;4.53;;;4.10;;
7410;SDS011;3747;48.628;9.058;2023-06-10T09:09:43;4.80;;;4.50;;
7410;SDS011;3747;48.628;9.058;2023-06-10T09:12:10;4.23;;;3.90;;
7410;SDS011;3747;48.628;9.058;2023-06-10T09:14:38;4.57;;;4.20;;
7410;SDS011;3747;48.628;9.058;2023-06-10T09:17:05;4.40;;;4.10;;
7410;SDS011;3747;48.628;9.058;2023-06-10T09:19:33;4.37;;;4.07;;
7410;SDS011;3747;48.628;9.058;2023-06-10T09:22:02;4.47;;;4.07;;
7410;SDS011;3747;48.628;9.058;2023-06-10T09:24:29;4.30;;;3.90;;
7410;SDS011;3747;48.628;9.058;2023-06-10T09:27:02;4.23;;;3.90;;
7410;SDS011;3747;48.628;9.058;2023-06-10T09:29:43;4.40;;;4.10;;
7410;SDS011;3747;48.628;9.058;2023-06-10T09:32:12;4.30;;;4.00;;
7410;SDS011;3747;48.628;9.058;2023-06-10T09:34:40;4.27;;;3.57;;
7410;SDS011;3747;48.628;9.058;2023-06-10T09:37:06;3.70;;;3.50;;
7410;SDS011;3747;48.628;9.058;2023-06-10T09:39:37;4.18;;;3.75;;
7410;SDS011;3747;48.628;9.058;2023-06-10T09:42:05;5.50;;;3.92;;
7410;SDS011;3747;48.628;9.058;2023-06-10T09:44:42;4.15;;;3.75;;
7410;SDS011;3747;48.628;9.058;2023-06-10T09:47:19;3.90;;;3.60;;
7410;SDS011;3747;48.628;9.058;2023-06-10T09:49:47;4.30;;;3.93;;
7410;SDS011;3747;48.628;9.058;2023-06-10T09:52:14;5.50;;;4.13;;
7410;SDS011;3747;48.628;9.058;2023-06-10T09:54:47;4.00;;;3.70;;
7410;SDS011;3747;48.628;9.058;2023-06-10T09:57:14;3.90;;;3.60;;
7410;SDS011;3747;48.628;9.058;2023-06-10T09:59:43;3.90;;;3.60;;
7410;SDS011;3747;48.628;9.058;2023-06-10T10:02:13;3.57;;;3.27;;
7410;SDS011;3747;48.628;9.058;2023-06-10T10:04:40;3.87;;;3.57;;
7410;SDS011;3747;48.628;9.058;2023-06-10T10:07:08;3.83;;;3.53;;
7410;SDS011;3747;48.628;9.058;2023-06-10T10:09:35;3.17;;;2.90;;
7410;SDS011;3747;48.628;9.058;2023-06-10T10:12:03;4.45;;;3.33;;
7410;SDS011;3747;48.628;9.058;2023-06-10T10:14:33;3.63;;;3.33;;
7410;SDS011;3747;48.628;9.058;2023-06-10T10:17:01;3.88;;;3.53;;
7410;SDS011;3747;48.628;9.058;2023-06-10T10:19:33;3.63;;;3.38;;
7410;SDS011;3747;48.628;9.058;2023-06-10T10:22:06;3.33;;;3.10;;
7410;SDS011;3747;48.628;9.058;2023-06-10T10:24:38;3.73;;;3.40;;
7410;SDS011;3747;48.628;9.058;2023-06-10T10:27:11;3.87;;;3.20;;
7410;SDS011;3747;48.628;9.058;2023-06-10T10:29:43;3.17;;;2.97;;
7410;SDS011;3747;48.628;9.058;2023-06-10T10:32:13;3.17;;;2.87;;
7410;SDS011;3747;48.628;9.058;2023-06-10T10:34:43;3.55;;;3.35;;
7410;SDS011;3747;48.628;9.058;2023-06-10T10:37:19;3.97;;;3.28;;
7410;SDS011;3747;48.628;9.058;2023-06-10T10:39:46;4.32;;;4.03;;
7410;SDS011;3747;48.628;9.058;2023-06-10T10:42:14;3.67;;;3.47;;
7410;SDS011;3747;48.628;9.058;2023-06-10T10:44:41;4.28;;;3.97;;
7410;SDS011;3747;48.628;9.058;2023-06-10T10:47:08;3.80;;;3.60;;
7410;SDS011;3747;48.628;9.058;2023-06-10T10:52:50;3.35;;;3.15;;
7410;SDS011;3747;48.628;9.058;2023-06-10T10:55:19;3.65;;;3.38;;
7410;SDS011;3747;48.628;9.058;2023-06-10T10:57:52;4.00;;;3.60;;
7410;SDS011;3747;48.628;9.058;2023-06-10T11:00:24;4.45;;;4.05;;
7410;SDS011;3747;48.628;9.058;2023-06-10T11:02:57;4.22;;;3.60;;
7410;SDS011;3747;48.628;9.058;2023-06-10T11:05:35;4.47;;;4.07;;
7410;SDS011;3747;48.628;9.058;2023-06-10T11:08:05;3.93;;;3.70;;
7410;SDS011;3747;48.628;9.058;2023-06-10T11:10:33;4.13;;;3.83;;
7410;SDS011;3747;48.628;9.058;2023-06-10T11:13:02;3.83;;;3.63;;
7410;SDS011;3747;48.628;9.058;2023-06-10T11:15:33;4.00;;;3.70;;
7410;SDS011;3747;48.628;9.058;2023-06-10T11:18:10;3.70;;;3.50;;
7410;SDS011;3747;48.628;9.058;2023-06-10T11:20:51;4.57;;;4.27;;
7410;SDS011;3747;48.628;9.058;2023-06-10T11:26:16;4.38;;;4.03;;
7410;SDS011;3747;48.628;9.058;2023-06-10T11:29:01;3.92;;;3.63;;
7410;SDS011;3747;48.628;9.058;2023-06-10T11:31:33;3.70;;;3.50;;
7410;SDS011;3747;48.628;9.058;2023-06-10T11:34:04;4.18;;;3.78;;
7410;SDS011;3747;48.628;9.058;2023-06-10T11:36:32;3.78;;;3.47;;
7410;SDS011;3747;48.628;9.058;2023-06-10T11:39:03;3.63;;;3.25;;
7410;SDS011;3747;48.628;9.058;2023-06-10T11:41:31;3.90;;;3.60;;
7410;SDS011;3747;48.628;9.058;2023-06-10T11:44:00;3.83;;;3.53;;
7410;SDS011;3747;48.628;9.058;2023-06-10T11:46:28;3.45;;;3.17;;
7410;SDS011;3747;48.628;9.058;2023-06-10T11:48:56;3.30;;;3.10;;
7410;SDS011;3747;48.628;9.058;2023-06-10T11:51:25;5.07;;;3.65;;
7410;SDS011;3747;48.628;9.058;2023-06-10T11:53:53;3.90;;;3.60;;
7410;SDS011;3747;48.628;9.058;2023-06-10T11:56:24;5.63;;;3.75;;
7410;SDS011;3747;48.628;9.058;2023-06-10T11:58:52;3.95;;;3.58;;
7410;SDS011;3747;48.628;9.058;2023-06-10T12:04:20;3.85;;;3.55;;
7410;SDS011;3747;48.628;9.058;2023-06-10T12:06:54;4.10;;;3.60;;
7410;SDS011;3747;48.628;9.058;2023-06-10T12:09:21;3.42;;;3.20;;
7410;SDS011;3747;48.628;9.058;2023-06-10T12:11:51;3.80;;;3.42;;
7410;SDS011;3747;48.628;9.058;2023-06-10T12:17:24;5.90;;;3.30;;
7410;SDS011;3747;48.628;9.058;2023-06-10T12:20:03;3.97;;;3.38;;
7410;SDS011;3747;48.628;9.058;2023-06-10T12:22:38;3.47;;;3.27;;
7410;SDS011;3747;48.628;9.058;2023-06-10T12:25:06;3.38;;;3.15;;
7410;SDS011;3747;48.628;9.058;2023-06-10T12:27:34;3.67;;;3.38;;
7410;SDS011;3747;48.628;9.058;2023-06-10T12:30:03;3.50;;;3.20;;
7410;SDS011;3747;48.628;9.058;2023-06-10T12:32:46;3.20;;;3.00;;
7410;SDS011;3747;48.628;9.058;2023-06-10T12:35:19;2.92;;;2.70;;
7410;SDS011;3747;48.628;9.058;2023-06-10T12:37:54;3.15;;;2.95;;
7410;SDS011;3747;48.628;9.058;2023-06-10T12:40:25;2.90;;;2.60;;
7410;SDS011;3747;48.628;9.058;2023-06-10T12:43:10;4.80;;;2.97;;
7410;SDS011;3747;48.628;9.058;2023-06-10T12:45:37;3.20;;;3.00;;
7410;SDS011;3747;48.628;9.058;2023-06-10T12:48:08;2.60;;;2.40;;
7410;SDS011;3747;48.628;9.058;2023-06-10T12:50:36;3.03;;;2.83;;
7410;SDS011;3747;48.628;9.058;2023-06-10T12:53:03;4.63;;;3.15;;
7410;SDS011;3747;48.628;9.058;2023-06-10T12:58:32;3.15;;;2.95;;
7410;SDS011;3747;48.628;9.058;2023-06-10T13:00:59;3.47;;;3.25;;
7410;SDS011;3747;48.628;9.058;2023-06-10T13:03:26;4.03;;;3.65;;
7410;SDS011;3747;48.628;9.058;2023-06-10T13:05:52;4.47;;;3.90;;
7410;SDS011;3747;48.628;9.058;2023-06-10T13:08:19;4.55;;;3.40;;
7410;SDS011;3747;48.628;9.058;2023-06-10T13:10:46;4.15;;;3.85;;
7410;SDS011;3747;48.628;9.058;2023-06-10T13:13:13;3.95;;;3.65;;
7410;SDS011;3747;48.628;9.058;2023-06-10T13:15:42;4.63;;;3.15;;
7410;SDS011;3747;48.628;9.058;2023-06-10T13:18:08;3.58;;;3.28;;
7410;SDS011;3747;48.628;9.058;2023-06-10T13:20:35;4.68;;;3.90;;
7410;SDS011;3747;48.628;9.058;2023-06-10T13:23:07;12.48;;;4.57;;
7410;SDS011;3747;48.628;9.058;2023-06-10T13:25:33;3.65;;;3.35;;
7410;SDS011;3747;48.628;9.058;2023-06-10T13:28:00;3.83;;;3.53;;
7410;SDS011;3747;48.628;9.058;2023-06-10T13:30:27;3.50;;;3.22;;
7410;SDS011;3747;48.628;9.058;2023-06-10T13:32:56;3.55;;;3.35;;
7410;SDS011;3747;48.628;9.058;2023-06-10T13:35:22;3.50;;;3.20;;
7410;SDS011;3747;48.628;9.058;2023-06-10T13:37:52;3.22;;;2.95;;
7410;SDS011;3747;48.628;9.058;2023-06-10T13:40:19;3.08;;;2.88;;
7410;SDS011;3747;48.628;9.058;2023-06-10T13:42:45;3.50;;;3.20;;
7410;SDS011;3747;48.628;9.058;2023-06-10T13:45:22;3.97;;;2.90;;
7410;SDS011;3747;48.628;9.058;2023-06-10T13:47:49;4.55;;;2.83;;
7410;SDS011;3747;48.628;9.058;2023-06-10T13:50:17;3.28;;;3.08;;
7410;SDS011;3747;48.628;9.058;2023-06-10T13:52:49;2.70;;;2.50;;
7410;SDS011;3747;48.628;9.058;2023-06-10T13:55:16;3.35;;;3.05;;
7410;SDS011;3747;48.628;9.058;2023-06-10T13:57:45;3.25;;;3.00;;
7410;SDS011;3747;48.628;9.058;2023-06-10T14:00:12;4.82;;;3.38;;
7410;SDS011;3747;48.628;9.058;2023-06-10T14:02:39;5.90;;;3.50;;
7410;SDS011;3747;48.628;9.058;2023-06-10T14:05:06;4.10;;;3.55;;
7410;SDS011;3747;48.628;9.058;2023-06-10T14:07:35;3.17;;;2.97;;
7410;SDS011;3747;48.628;9.058;2023-06-10T14:10:02;4.78;;;3.72;;
7410;SDS011;3747;48.628;9.058;2023-06-10T14:12:29;4.03;;;3.72;;
7410;SDS011;3747;48.628;9.058;2023-06-10T14:14:56;3.78;;;3.47;;
7410;SDS011;3747;48.628;9.058;2023-06-10T14:17:23;3.78;;;3.58;;
7410;SDS011;3747;48.628;9.058;2023-06-10T14:19:49;3.78;;;3.33;;
7410;SDS011;3747;48.628;9.058;2023-06-10T14:22:16;3.45;;;3.15;;
7410;SDS011;3747;48.628;9.058;2023-06-10T14:24:44;3.67;;;3.47;;
7410;SDS011;3747;48.628;9.058;2023-06-10T14:27:20;5.28;;;3.47;;
7410;SDS011;3747;48.628;9.058;2023-06-10T14:29:47;3.67;;;3.38;;
7410;SDS011;3747;48.628;9.058;2023-06-10T14:32:13;8.80;;;4.38;;
7410;SDS011;3747;48.628;9.058;2023-06-10T14:34:40;6.00;;;4.10;;
7410;SDS011;3747;48.628;9.058;2023-06-10T14:37:09;3.55;;;3.35;;
7410;SDS011;3747;48.628;9.058;2023-06-10T14:39:39;3.38;;;3.17;;
7410;SDS011;3747;48.628;9.058;2023-06-10T14:42:10;3.17;;;2.92;;
7410;SDS011;3747;48.628;9.058;2023-06-10T14:44:37;3.28;;;2.97;;
7410;SDS011;3747;48.628;9.058;2023-06-10T14:47:04;3.20;;;3.00;;
7410;SDS011;3747;48.628;9.058;2023-06-10T14:49:31;3.45;;;3.20;;
7410;SDS011;3747;48.628;9.058;2023-06-10T14:51:57;3.30;;;3.10;;
7410;SDS011;3747;48.628;9.058;2023-06-10T14:54:24;4.85;;;3.78;;
7410;SDS011;3747;48.628;9.058;2023-06-10T14:56:51;3.78;;;3.20;;
7410;SDS011;3747;48.628;9.058;2023-06-10T14:59:19;4.97;;;3.28;;
7410;SDS011;3747;48.628;9.058;2023-06-10T15:01:46;3.50;;;3.30;;
7410;SDS011;3747;48.628;9.058;2023-06-10T15:04:13;6.85;;;3.95;;
7410;SDS011;3747;48.628;9.058;2023-06-10T15:06:39;3.47;;;3.20;;
7410;SDS011;3747;48.628;9.058;2023-06-10T15:09:07;9.02;;;4.10;;
7410;SDS011;3747;48.628;9.058;2023-06-10T15:11:35;3.95;;;3.58;;
7410;SDS011;3747;48.628;9.058;2023-06-10T15:14:02;3.10;;;2.90;;
7410;SDS011;3747;48.628;9.058;2023-06-10T15:16:31;3.53;;;3.20;;
7410;SDS011;3747;48.628;9.058;2023-06-10T15:18:57;4.07;;;3.17;;
7410;SDS011;3747;48.628;9.058;2023-06-10T15:21:24;4.05;;;3.58;;
7410;SDS011;3747;48.628;9.058;2023-06-10T15:23:51;3.90;;;3.65;;
7410;SDS011;3747;48.628;9.058;2023-06-10T15:26:18;6.57;;;4.20;;
7410;SDS011;3747;48.628;9.058;2023-06-10T15:28:45;4.60;;;3.50;;
7410;SDS011;3747;48.628;9.058;2023-06-10T15:31:12;4.87;;;3.70;;
7410;SDS011;3747;48.628;9.058;2023-06-10T15:33:40;3.97;;;3.67;;
7410;SDS011;3747;48.628;9.058;2023-06-10T15:36:06;4.70;;;3.97;;
7410;SDS011;3747;48.628;9.058;2023-06-10T15:38:33;3.60;;;3.30;;
7410;SDS011;3747;48.628;9.058;2023-06-10T15:40:59;3.90;;;3.60;;
7410;SDS011;3747;48.628;9.058;2023-06-10T15:43:26;4.80;;;4.00;;